Monday, March 02, 2015
11:12 UTC
  |  Log In   |  Register Free
Airport Search:

Clayton Municipal Airport
(11A)

Clayton Municipal Airport Diagram
No Airport Diagram Available

FAA data valid effective January 08, 2015 - March 05, 2015 (unless otherwise noted).

 
 
 
 
 
 
 
 
 
 
 
 
 
 

Current Aviation Weather for Clayton Municipal Airport (11A)

METAR data is unavailable for 11A. The nearest METAR location is at KEUF (18.6 nm NE from 11A).

The most recent METAR observation for KEUF was updated at: 1010
METAR Summary (Translated METAR)
KEUF
020958Z AUTO 00000KT 1SM BR VV002 11/10 A3028 RMK AO2 SLP252 T01060100 $
(18.6 nm NE from 11A)
KTOI
021015Z AUTO 00000KT 3SM BR OVC003 11/10 A3030 RMK AO2 T01060100
(26.9 nm SW from 11A)
TAF Summary (Translated TAF)
KTOI
(45.4 nm SW from KEUF)
020536Z 0206/0306 VRB05KT 4SM -RA BR OVC005 FM020800 VRB03KT 1SM BR VCSH OVC002 FM021500 VRB03KT 5SM -DZ BR OVC007
  Airport Weather Conditions for 11A

Current weather conditions are
not available for 11A


The nearest NOAA weather station
is at EUF, (18.6 nm NE from 11A)
  
 Current Weather at EUF
51° F
Fog/Mist
North winds at 0.0 mph
EUF NOAA Radar

Pressure: 30.28 in
Humidity: 96%
Wind: Calm
Dew Point: 50.0°F
Visibility: 1.00 mi


Airport Weather Forecast for 11A

Translated METAR and TAF for KEUF
Translated METAR for KEUF (1112 UTC 02 March 2015)
found at http://aviationweather.gov/adds/metars/
 
METAR text: KEUF 021058Z AUTO 00000KT 1 1/4SM BR OVC002 11/10 A3030 RMK AO2 SLP260 T01060100 $
Conditions at: KEUF (EUFAULA , AL, US) observed 1058 UTC 02 March 2015
Temperature: 10.6°C (51°F)
Dewpoint: 10.0°C (50°F) [RH = 96%]
Pressure (altimeter): 30.30 inches Hg (1026.2 mb)
[Sea-level pressure: 1026.0 mb]
Winds: calm
Visibility: 1.25 miles (2.01 km)
Ceiling: 200 feet AGL
Clouds: overcast cloud deck at 200 feet AGL
Weather: BR  (mist)
SOME DATA ABOVE MAY BE INACCURATE!!!
"$" is an indication the sensor requires maintenance
Translated TAF for KEUF

There is no translated TAF available for this airport

Find All Airport Services Find A Hotel Find A Rental Car Find A Golf Course Find A Restaurant $100 Hamburger



FBO's on the Field
FBO Company Facility Photos Services Transportation Aviation Fuel Prices: Prices include tax
Catering Weather Repair Courtesy Rental Type 100LL JetA JetA+ MOGAS 8087
 
Add another FBO Facility Photos Catering Weather Repair Courtesy Rental Type 100LL JetA JetA+ MOGAS 8087
Services Transportation Aviation Fuel Prices: Prices include tax
There are no FBO's currently reporting fuel at 11A. List your FBO now


model-print
model-print
model-print
model-print